Ilford, Canada
Current Conditions -  °F | °C
As of 4:00 AM on Saturday 25 Oct 2014 (Local Time) from CYGX Reporting Station
Light Rain Light Rain  
Wind Chill: 33°   Ceiling: 700
Heat Index: 41°   Visibility: 10mi
Dew Point: 39°   Wind: 16mph
Humidity: 93%   Direction: 290°WNW
Pressure: 29.44"   Gusts: 24mph
Location:  56.04°N, 95.58°W
Report Text: CYGX 250900Z 29014G21KT 10SM -RADZ OVC007 05/04 A2944 RMK ST8 CIG RAG SLP975
Loading
Personal Weather Stations






























Interactive Weather Map
Tropical Storm Tracking
New forecast layout! Learn more

10-Day Weather Forecast

Advertisements
Track Severe Weather on mobile